Time;durP1;ratioP1;P1;durP2;ratioP2;P2;SDS_P1;SDS_P2;PMS_P1;PMS_P2;Temp;Humidity;BMP_temperature;BMP_pressure;BME280_temperature;BME280_humidity;BME280_pressure;Samples;Min_cycle;Max_cycle;Signal;HPM_P1;HPM_P2
2022/08/24 00:03:06;;;;;;;;;;;;;;;23.20;42.13;95886.94;10315815;28;3209;-54
2022/08/24 00:08:06;;;;;;;;;;;;;;;23.20;41.99;95889.59;10323569;28;3111;-56
2022/08/24 00:13:06;;;;;;;;;;;;;;;23.19;41.97;95880.06;10320115;28;3246;-56
2022/08/24 00:18:06;;;;;;;;;;;;;;;23.20;42.21;95870.28;10324195;28;3163;-53
2022/08/24 00:23:07;;;;;;;;;;;;;;;23.21;42.17;95877.13;10324732;28;2436;-54
2022/08/24 00:28:07;;;;;;;;;;;;;;;23.20;42.04;95875.56;10321303;28;2409;-57
2022/08/24 00:33:07;;;;;;;;;;;;;;;23.19;42.17;95880.06;10322975;28;3218;-57
2022/08/24 00:38:07;;;;;;;;;;;;;;;23.19;42.24;95880.06;10322232;28;3301;-55
2022/08/24 00:43:08;;;;;;;;;;;;;;;23.20;41.93;95883.50;10323030;28;3201;-55
2022/08/24 00:48:17;;;;;;;;;;;;;;;23.20;41.97;95881.66;10322259;28;2421;-55
2022/08/24 00:53:23;;;;;;;;;;;;;;;23.21;41.97;95882.41;10302825;28;3218;-54
2022/08/24 00:58:30;;;;;;;;;;;;;;;23.20;42.00;95883.50;10327860;28;2341;-57
2022/08/24 01:03:31;;;;;;;;;;;;;;;23.21;42.13;95882.41;10328363;28;3194;-57
2022/08/24 01:08:31;;;;;;;;;;;;;;;23.20;41.99;95883.50;10335216;28;2425;-55
2022/08/24 01:13:31;;;;;;;;;;;;;;;23.19;41.93;95885.34;10333729;28;3206;-54
2022/08/24 01:18:50;;;;;;;;;;;;;;;23.18;42.21;95888.28;10333451;28;2672;-55
2022/08/24 01:23:54;;;;;;;;;;;;;;;23.18;42.12;95898.88;10334774;28;3273;-55
2022/08/24 01:28:55;;;;;;;;;;;;;;;23.15;41.95;95883.56;10332108;28;3157;-56
2022/08/24 01:33:55;;;;;;;;;;;;;;;23.15;42.01;95879.06;10331273;28;3194;-56
2022/08/24 01:38:57;;;;;;;;;;;;;;;23.15;42.02;95880.91;10334807;28;3177;-56
2022/08/24 01:43:57;;;;;;;;;;;;;;;23.13;41.81;95873.28;10334004;28;3191;-54
2022/08/24 01:48:57;;;;;;;;;;;;;;;23.13;41.88;95880.41;10335612;28;3182;-56
2022/08/24 01:54:01;;;;;;;;;;;;;;;23.14;42.04;95868.78;10349331;28;3260;-55
2022/08/24 01:59:02;;;;;;;;;;;;;;;23.12;41.80;95866.41;10333233;28;3219;-53
2022/08/24 02:04:02;;;;;;;;;;;;;;;23.12;42.03;95866.41;10332198;28;3134;-54
2022/08/24 02:09:03;;;;;;;;;;;;;;;23.12;41.81;95874.34;10323969;28;3170;-55
2022/08/24 02:14:04;;;;;;;;;;;;;;;23.12;42.02;95876.22;10329802;28;3139;-56
2022/08/24 02:19:05;;;;;;;;;;;;;;;23.11;41.69;95878.06;10325690;28;2386;-54
2022/08/24 02:24:05;;;;;;;;;;;;;;;23.11;41.97;95878.06;10328475;28;3224;-56
2022/08/24 02:29:06;;;;;;;;;;;;;;;23.10;41.68;95876.47;10324444;28;3170;-56
2022/08/24 02:34:06;;;;;;;;;;;;;;;23.11;41.80;95877.28;10333236;28;3103;-55
2022/08/24 02:39:07;;;;;;;;;;;;;;;23.11;42.03;95872.00;10322966;28;3170;-53
2022/08/24 02:44:08;;;;;;;;;;;;;;;23.11;41.80;95875.41;10327719;28;2456;-55
2022/08/24 02:49:08;;;;;;;;;;;;;;;23.11;41.68;95872.78;10323445;28;3306;-56
2022/08/24 02:54:09;;;;;;;;;;;;;;;23.10;41.97;95876.47;10327322;28;3162;-54
2022/08/24 02:59:09;;;;;;;;;;;;;;;23.11;41.76;95872.00;10324143;28;3114;-55
2022/08/24 03:04:09;;;;;;;;;;;;;;;23.12;41.74;95874.34;10324564;28;2413;-56
2022/08/24 03:09:10;;;;;;;;;;;;;;;23.12;41.66;95874.34;10325214;28;3171;-54
2022/08/24 03:14:10;;;;;;;;;;;;;;;23.12;41.61;95873.56;10329724;28;3157;-56
2022/08/24 03:19:11;;;;;;;;;;;;;;;23.11;41.70;95872.00;10324064;28;2381;-55
2022/08/24 03:24:11;;;;;;;;;;;;;;;23.12;41.90;95873.56;10326079;28;3163;-54
2022/08/24 03:29:12;;;;;;;;;;;;;;;23.12;41.56;95873.56;10323233;28;3219;-55
2022/08/24 03:34:13;;;;;;;;;;;;;;;23.11;41.63;95872.00;10326156;28;3183;-57
2022/08/24 03:39:13;;;;;;;;;;;;;;;23.12;41.59;95873.56;10324632;28;3161;-55
2022/08/24 03:44:13;;;;;;;;;;;;;;;23.11;41.65;95882.56;10322557;28;3178;-54
2022/08/24 03:49:14;;;;;;;;;;;;;;;23.11;41.52;95885.22;10322385;28;3231;-55
2022/08/24 03:54:14;;;;;;;;;;;;;;;23.11;41.46;95887.84;10324577;28;2429;-55
2022/08/24 03:59:14;;;;;;;;;;;;;;;23.13;41.51;95885.72;10322432;28;3161;-55
2022/08/24 04:04:15;;;;;;;;;;;;;;;23.11;41.53;95886.00;10323357;28;3178;-56
2022/08/24 04:09:15;;;;;;;;;;;;;;;23.08;41.46;95880.50;10323227;28;3221;-55
2022/08/24 04:14:16;;;;;;;;;;;;;;;23.08;41.72;95883.16;10321061;28;2461;-56
2022/08/24 04:19:16;;;;;;;;;;;;;;;23.06;41.42;95886.06;10321766;28;3235;-54
2022/08/24 04:24:16;;;;;;;;;;;;;;;23.05;41.43;95878.41;10318482;28;2441;-55
2022/08/24 04:29:18;;;;;;;;;;;;;;;23.07;41.49;95886.84;10320821;28;3259;-54
2022/08/24 04:34:18;;;;;;;;;;;;;;;23.06;41.54;95878.13;10321997;28;3106;-55
2022/08/24 04:39:18;;;;;;;;;;;;;;;23.06;41.49;95887.94;10321016;28;2457;-56
2022/08/24 04:44:18;;;;;;;;;;;;;;;23.05;41.77;95892.44;10320677;28;3297;-55
2022/08/24 04:49:19;;;;;;;;;;;;;;;23.04;41.52;95896.13;10318798;28;3292;-55
2022/08/24 04:54:19;;;;;;;;;;;;;;;23.05;41.92;95896.94;10320194;28;3155;-53
2022/08/24 04:59:20;;;;;;;;;;;;;;;23.05;41.57;95904.84;10319824;28;2464;-54
2022/08/24 05:04:20;;;;;;;;;;;;;;;23.05;41.66;95910.16;10323088;28;3174;-56
2022/08/24 05:09:20;;;;;;;;;;;;;;;23.03;41.91;95912.28;10322420;28;3193;-55
2022/08/24 05:14:20;;;;;;;;;;;;;;;23.04;41.87;95919.94;10319212;28;2460;-56
2022/08/24 05:19:22;;;;;;;;;;;;;;;23.03;41.79;95917.56;10320192;28;3177;-55
2022/08/24 05:24:22;;;;;;;;;;;;;;;23.02;42.13;95922.06;10321535;28;3188;-55
2022/08/24 05:29:22;;;;;;;;;;;;;;;23.05;41.92;95924.16;10320388;28;2520;-55
2022/08/24 05:34:22;;;;;;;;;;;;;;;23.05;41.81;95931.28;10320190;28;3428;-55
2022/08/24 05:39:23;;;;;;;;;;;;;;;23.04;41.83;95933.16;10321440;28;3126;-55
2022/08/24 05:44:23;;;;;;;;;;;;;;;23.05;42.01;95936.59;10327232;28;3152;-56
2022/08/24 05:49:24;;;;;;;;;;;;;;;23.07;41.82;95939.72;10328558;28;3096;-54
2022/08/24 05:54:25;;;;;;;;;;;;;;;23.06;42.06;95944.22;10325280;28;3243;-55
2022/08/24 05:59:25;;;;;;;;;;;;;;;23.09;41.98;95958.75;10326052;28;3206;-54
2022/08/24 06:04:27;;;;;;;;;;;;;;;23.08;42.11;95963.25;10324853;28;3133;-56
2022/08/24 06:09:28;;;;;;;;;;;;;;;23.04;42.12;95964.13;10328308;28;2397;-55
2022/08/24 06:14:28;;;;;;;;;;;;;;;23.08;42.18;95962.47;10319122;28;3522;-55
2022/08/24 06:19:28;;;;;;;;;;;;;;;23.09;42.24;95962.19;10318679;28;2421;-54
2022/08/24 06:29:48;;;;;;;;;;;;;;;23.10;42.61;95961.09;10312301;28;3150;-55
2022/08/24 06:34:49;;;;;;;;;;;;;;;23.11;42.50;95960.03;10316190;28;3165;-54
2022/08/24 06:39:49;;;;;;;;;;;;;;;23.14;42.42;95956.81;10315862;28;3134;-54
2022/08/24 06:44:50;;;;;;;;;;;;;;;23.15;42.72;95952.31;10319629;28;3109;-55
2022/08/24 06:49:50;;;;;;;;;;;;;;;23.17;42.75;95961.53;10317263;28;3266;-56
2022/08/24 06:54:51;;;;;;;;;;;;;;;23.18;42.71;95970.28;10316554;28;2549;-53
2022/08/24 06:59:52;;;;;;;;;;;;;;;23.14;42.64;95969.28;10318704;28;3099;-52
2022/08/24 07:04:52;;;;;;;;;;;;;;;23.13;42.66;95970.31;10316636;28;2348;-54
2022/08/24 07:09:53;;;;;;;;;;;;;;;23.10;42.43;95978.84;10317530;28;3145;-54
2022/08/24 07:14:53;;;;;;;;;;;;;;;23.06;42.15;95975.97;10318023;28;3171;-54
2022/08/24 07:19:53;;;;;;;;;;;;;;;23.08;42.04;95983.63;10316878;28;2509;-55
2022/08/24 07:24:54;;;;;;;;;;;;;;;23.10;42.13;95974.31;10316348;28;3127;-55
2022/08/24 07:29:54;;;;;;;;;;;;;;;23.08;41.98;95978.34;10313348;28;3196;-54
2022/08/24 07:34:54;;;;;;;;;;;;;;;23.09;41.99;95982.53;10315960;28;3153;-56
2022/08/24 07:39:55;;;;;;;;;;;;;;;23.07;41.77;95985.47;10316831;28;3193;-56
2022/08/24 07:44:56;;;;;;;;;;;;;;;23.06;41.97;95975.19;10310178;28;3165;-52
2022/08/24 07:49:56;;;;;;;;;;;;;;;23.07;42.22;95980.19;10312520;28;2429;-53
2022/08/24 07:54:56;;;;;;;;;;;;;;;23.04;42.06;95979.97;10314101;28;3181;-54
2022/08/24 08:00:00;;;;;;;;;;;;;;;23.05;42.11;95976.25;10315091;28;3079;-54
2022/08/24 08:05:01;;;;;;;;;;;;;;;23.09;41.82;95971.97;10314513;28;3124;-55
2022/08/24 08:10:01;;;;;;;;;;;;;;;23.00;41.87;95966.50;10314299;28;3174;-55
2022/08/24 08:15:02;;;;;;;;;;;;;;;22.98;41.49;95963.38;10311518;28;3066;-56
2022/08/24 08:20:03;;;;;;;;;;;;;;;22.93;41.17;95971.38;10315900;28;3182;-51
2022/08/24 08:25:06;;;;;;;;;;;;;;;22.92;41.18;95979.56;10313691;28;2456;-55
2022/08/24 08:30:06;;;;;;;;;;;;;;;22.92;40.89;95977.72;10310721;28;3181;-56
2022/08/24 08:35:07;;;;;;;;;;;;;;;22.94;40.85;95972.16;10316396;28;3163;-55
2022/08/24 08:40:10;;;;;;;;;;;;;;;22.99;41.28;95972.09;10310002;28;2451;-56
2022/08/24 08:45:14;;;;;;;;;;;;;;;22.99;41.37;95980.03;10309739;28;3197;-55
2022/08/24 08:50:24;;;;;;;;;;;;;;;23.00;41.23;95971.03;10309495;28;3185;-53
2022/08/24 08:55:43;;;;;;;;;;;;;;;23.04;41.49;95969.41;10314108;28;3150;-55
2022/08/24 09:00:48;;;;;;;;;;;;;;;23.02;41.61;95964.38;10316556;28;2455;-54
2022/08/24 09:05:49;;;;;;;;;;;;;;;23.07;41.77;95972.25;10308997;28;3178;-54
2022/08/24 09:11:08;;;;;;;;;;;;;;;23.08;41.85;95968.53;10314202;28;3148;-56
2022/08/24 09:16:14;;;;;;;;;;;;;;;23.16;42.30;95969.78;10315001;28;2401;-55
2022/08/24 09:21:22;;;;;;;;;;;;;;;23.17;42.30;95966.84;10323009;28;3129;-55
2022/08/24 09:26:22;;;;;;;;;;;;;;;23.20;42.59;95965.47;10320047;28;3202;-54
2022/08/24 09:31:25;;;;;;;;;;;;;;;23.24;42.88;95954.06;10317917;28;3204;-54
2022/08/24 09:36:32;;;;;;;;;;;;;;;23.27;42.71;95964.06;10316397;28;3103;-53
2022/08/24 09:41:51;;;;;;;;;;;;;;;23.29;43.07;95953.19;10318470;28;2442;-56
2022/08/24 09:46:58;;;;;;;;;;;;;;;23.28;43.30;95957.69;10318822;28;3572;-56
2022/08/24 09:52:08;;;;;;;;;;;;;;;23.31;42.94;95957.13;10320456;28;3181;-57
2022/08/24 09:57:30;;;;;;;;;;;;;;;23.30;43.27;95949.47;10315379;28;3295;-56
2022/08/24 10:02:30;;;;;;;;;;;;;;;23.36;43.35;95953.66;10317619;28;3151;-59
2022/08/24 10:07:35;;;;;;;;;;;;;;;23.36;43.80;95941.22;10320942;28;3125;-53
2022/08/24 10:12:46;;;;;;;;;;;;;;;23.39;44.01;95942.47;10313369;28;3191;-52
2022/08/24 10:18:11;;;;;;;;;;;;;;;23.44;44.06;95940.56;10318538;28;3157;-49
2022/08/24 10:23:30;;;;;;;;;;;;;;;23.46;44.02;95942.91;10316379;28;2420;-52
2022/08/24 10:28:36;;;;;;;;;;;;;;;23.47;43.91;95941.88;10319028;28;3309;-53
2022/08/24 10:33:55;;;;;;;;;;;;;;;23.48;44.17;95943.41;10317173;28;3095;-49
2022/08/24 10:44:32;;;;;;;;;;;;;;;23.49;44.49;95934.41;10311548;28;3154;-52
2022/08/24 10:49:35;;;;;;;;;;;;;;;23.50;44.21;95935.97;10315303;28;3076;-51
2022/08/24 10:54:35;;;;;;;;;;;;;;;23.51;44.75;95923.53;10313039;28;3102;-53
2022/08/24 10:59:42;;;;;;;;;;;;;;;23.52;44.43;95925.09;10316608;28;2385;-52
2022/08/24 11:04:43;;;;;;;;;;;;;;;23.53;44.26;95922.19;10318215;28;3123;-50
2022/08/24 11:09:52;;;;;;;;;;;;;;;23.52;44.56;95915.31;10311665;28;2407;-52
2022/08/24 11:14:53;;;;;;;;;;;;;;;23.53;44.45;95916.91;10317209;28;2404;-51
2022/08/24 11:19:53;;;;;;;;;;;;;;;23.54;44.72;95922.94;10317506;28;3300;-51
2022/08/24 11:24:54;;;;;;;;;;;;;;;23.55;44.67;95916.59;10297126;28;2422;-51
2022/08/24 11:29:56;;;;;;;;;;;;;;;23.57;44.64;95917.91;10311978;28;3151;-51
2022/08/24 11:35:00;;;;;;;;;;;;;;;23.58;44.71;95908.06;10318539;28;3166;-52
2022/08/24 11:40:01;;;;;;;;;;;;;;;23.58;44.62;95908.88;10316484;28;3215;-53
2022/08/24 11:45:13;;;;;;;;;;;;;;;23.56;45.10;95910.22;10317741;28;3239;-50
2022/08/24 11:50:16;;;;;;;;;;;;;;;23.60;44.70;95914.66;10309247;28;3279;-53
2022/08/24 11:55:19;;;;;;;;;;;;;;;23.62;44.75;95911.75;10317045;28;3216;-51
2022/08/24 12:00:20;;;;;;;;;;;;;;;23.63;44.81;95922.03;10313683;28;3135;-51
2022/08/24 12:05:26;;;;;;;;;;;;;;;23.62;44.59;95914.38;10314739;28;3197;-53
2022/08/24 12:10:27;;;;;;;;;;;;;;;23.62;44.67;95919.69;10308214;28;3184;-50
2022/08/24 12:15:45;;;;;;;;;;;;;;;23.61;44.70;95918.09;10312780;28;3162;-52
2022/08/24 12:20:51;;;;;;;;;;;;;;;23.62;44.62;95911.75;10313067;28;3190;-54
2022/08/24 12:26:01;;;;;;;;;;;;;;;23.60;44.95;95912.00;10313441;28;3226;-53
2022/08/24 12:31:20;;;;;;;;;;;;;;;23.61;45.00;95899.56;10309844;28;3301;-54
2022/08/24 12:36:24;;;;;;;;;;;;;;;23.62;44.89;95912.50;10316033;28;2443;-51
2022/08/24 12:41:26;;;;;;;;;;;;;;;23.62;45.31;95890.56;10310148;28;2448;-51
2022/08/24 12:46:27;;;;;;;;;;;;;;;23.62;45.00;95898.50;10286224;28;3070;-54
2022/08/24 12:51:56;;;;;;;;;;;;;;;23.62;45.14;95899.28;10299524;28;3174;-55
2022/08/24 12:56:56;;;;;;;;;;;;;;;23.63;45.16;95890.28;10316215;28;3174;-54
2022/08/24 13:02:16;;;;;;;;;;;;;;;23.64;45.12;95888.41;10313013;28;2479;-52
2022/08/24 13:07:22;;;;;;;;;;;;;;;23.65;45.25;95885.47;10305440;28;3193;-51
2022/08/24 13:12:32;;;;;;;;;;;;;;;23.62;44.90;95890.56;10315697;28;2516;-52
2022/08/24 13:17:39;;;;;;;;;;;;;;;23.64;45.16;95885.78;10314579;28;2456;-53
2022/08/24 13:22:58;;;;;;;;;;;;;;;23.64;45.16;95889.19;10309841;28;3500;-53
2022/08/24 13:28:06;;;;;;;;;;;;;;;23.65;45.00;95892.63;10316282;28;3147;-53
2022/08/24 13:33:08;;;;;;;;;;;;;;;23.68;45.49;95887.53;10313692;28;3145;-54
2022/08/24 13:38:41;;;;;;;;;;;;;;;23.70;45.41;95889.91;10311744;28;3205;-51
2022/08/24 13:44:15;;;;;;;;;;;;;;;23.72;45.25;95882.47;10298871;28;3117;-53
2022/08/24 13:49:37;;;;;;;;;;;;;;;23.71;45.25;95876.38;10301997;28;3127;-53
2022/08/24 13:55:06;;;;;;;;;;;;;;;23.71;45.45;95878.22;10311825;28;3199;-51
2022/08/24 14:00:28;;;;;;;;;;;;;;;23.74;45.54;95873.13;10317596;28;3158;-52
2022/08/24 14:05:48;;;;;;;;;;;;;;;23.75;45.24;95865.97;10315403;28;2501;-53
2022/08/24 14:10:52;;;;;;;;;;;;;;;23.75;45.38;95872.06;10319853;28;3495;-54
2022/08/24 14:21:22;;;;;;;;;;;;;;;23.77;45.36;95877.88;10306860;28;3128;-52
2022/08/24 14:26:32;;;;;;;;;;;;;;;23.77;45.53;95872.56;10319543;28;3322;-54
2022/08/24 14:31:32;;;;;;;;;;;;;;;23.80;45.28;95873.84;10318840;28;3161;-54
2022/08/24 14:36:55;;;;;;;;;;;;;;;23.79;45.32;95881.00;10321082;28;3159;-53
2022/08/24 14:42:10;;;;;;;;;;;;;;;23.78;45.47;95865.41;10317275;28;3086;-52
2022/08/24 14:47:24;;;;;;;;;;;;;;;23.78;45.80;95863.53;10320068;28;3206;-48
2022/08/24 14:52:44;;;;;;;;;;;;;;;23.78;45.71;95857.47;10320017;28;3107;-49
2022/08/24 14:57:56;;;;;;;;;;;;;;;23.75;45.59;95861.47;10319104;28;3179;-53
2022/08/24 15:03:16;;;;;;;;;;;;;;;23.78;45.77;95862.78;10318557;28;3203;-50
2022/08/24 15:08:27;;;;;;;;;;;;;;;23.75;46.05;95864.13;10315050;28;3277;-54
2022/08/24 15:13:30;;;;;;;;;;;;;;;23.77;45.84;95864.63;10320858;28;3200;-53
2022/08/24 15:18:58;;;;;;;;;;;;;;;23.79;45.92;95862.47;10295525;28;3478;-52
2022/08/24 15:24:02;;;;;;;;;;;;;;;23.78;46.16;95847.66;10303623;28;2421;-53
2022/08/24 15:29:22;;;;;;;;;;;;;;;23.79;45.81;95851.88;10314506;28;2392;-51
2022/08/24 15:34:37;;;;;;;;;;;;;;;23.79;45.90;95849.25;10316819;28;3109;-53
2022/08/24 15:39:37;;;;;;;;;;;;;;;23.78;45.95;95841.59;10318206;28;3215;-53
2022/08/24 15:44:39;;;;;;;;;;;;;;;23.78;46.18;95855.59;10318423;28;3249;-51
2022/08/24 15:49:46;;;;;;;;;;;;;;;23.79;46.09;95849.25;10315101;28;2417;-53
2022/08/24 15:54:55;;;;;;;;;;;;;;;23.82;46.08;95855.81;10313842;28;3209;-54
2022/08/24 16:00:06;;;;;;;;;;;;;;;23.81;46.10;95857.66;10315171;28;3096;-54
2022/08/24 16:05:09;;;;;;;;;;;;;;;23.80;46.54;95861.38;10317785;28;3334;-52
2022/08/24 16:10:13;;;;;;;;;;;;;;;23.81;46.29;95852.38;10313721;28;3337;-52
2022/08/24 16:15:19;;;;;;;;;;;;;;;23.80;46.38;95853.44;10318146;28;3099;-52
2022/08/24 16:20:20;;;;;;;;;;;;;;;23.80;46.38;95852.69;10319322;28;2433;-53
2022/08/24 16:25:20;;;;;;;;;;;;;;;23.81;46.25;95851.59;10314958;28;3262;-53
2022/08/24 16:30:22;;;;;;;;;;;;;;;23.81;46.30;95849.72;10306657;28;3288;-52
2022/08/24 16:35:25;;;;;;;;;;;;;;;23.79;46.34;95849.25;10314757;28;3245;-55
2022/08/24 16:40:26;;;;;;;;;;;;;;;23.78;46.54;95855.59;10314660;28;2483;-53
2022/08/24 16:45:26;;;;;;;;;;;;;;;23.80;46.63;95853.44;10313193;28;3117;-52
2022/08/24 16:50:26;;;;;;;;;;;;;;;23.81;46.70;95855.03;10314366;28;3246;-53
2022/08/24 16:55:27;;;;;;;;;;;;;;;23.82;46.73;95855.81;10308027;28;3185;-51
2022/08/24 17:00:28;;;;;;;;;;;;;;;23.80;46.77;95848.16;10317181;28;3202;-52
2022/08/24 17:05:28;;;;;;;;;;;;;;;23.81;46.80;95852.38;10316345;28;3233;-50
2022/08/24 17:10:28;;;;;;;;;;;;;;;23.81;47.06;95859.53;10310319;28;3163;-55
2022/08/24 17:15:29;;;;;;;;;;;;;;;23.82;47.28;95863.75;10313090;28;3149;-53
2022/08/24 17:20:29;;;;;;;;;;;;;;;23.84;47.34;95867.69;10315838;28;2444;-54
2022/08/24 17:25:29;;;;;;;;;;;;;;;23.83;47.31;95862.66;10314560;28;2420;-54
2022/08/24 17:30:30;;;;;;;;;;;;;;;23.82;47.21;95861.88;10306056;28;3188;-54
2022/08/24 17:35:30;;;;;;;;;;;;;;;23.84;47.05;95854.47;10313728;28;3156;-54
2022/08/24 17:40:30;;;;;;;;;;;;;;;23.81;47.06;95852.38;10316464;28;3122;-53
2022/08/24 17:45:32;;;;;;;;;;;;;;;23.82;47.18;95859.22;10323717;28;2532;-55
2022/08/24 17:50:33;;;;;;;;;;;;;;;23.81;47.27;95864.81;10317164;28;2505;-53
2022/08/24 17:55:34;;;;;;;;;;;;;;;23.83;46.89;95868.75;10316488;28;3693;-55
2022/08/24 18:00:34;;;;;;;;;;;;;;;23.82;47.18;95861.88;10318874;28;2583;-52
2022/08/24 18:05:34;;;;;;;;;;;;;;;23.79;47.36;95867.75;10322933;28;2405;-54
2022/08/24 18:10:35;;;;;;;;;;;;;;;23.81;47.29;95870.91;10320107;28;3324;-54
2022/08/24 18:15:44;;;;;;;;;;;;;;;23.81;47.67;95875.41;10319476;28;3162;-51
2022/08/24 18:20:44;;;;;;;;;;;;;;;23.92;47.06;95874.97;10319713;28;3177;-52
2022/08/24 18:25:45;;;;;;;;;;;;;;;23.90;47.35;95885.06;10316807;28;3231;-54
2022/08/24 18:30:48;;;;;;;;;;;;;;;23.93;47.22;95884.47;10314897;28;3280;-53
2022/08/24 18:35:49;;;;;;;;;;;;;;;23.94;47.26;95885.25;10321603;28;3218;-52
2022/08/24 18:40:49;;;;;;;;;;;;;;;23.90;46.98;95893.00;10320260;28;2496;-53
2022/08/24 18:45:59;;;;;;;;;;;;;;;23.93;47.01;95900.34;10321586;28;3204;-54
2022/08/24 18:50:59;;;;;;;;;;;;;;;23.92;47.27;95901.44;10334681;28;3287;-53
2022/08/24 18:56:02;;;;;;;;;;;;;;;23.91;47.39;95907.78;10319989;28;3230;-53
2022/08/24 19:01:03;;;;;;;;;;;;;;;23.88;47.55;95900.44;10319049;28;2408;-51
2022/08/24 19:06:04;;;;;;;;;;;;;;;23.87;47.66;95906.81;10322347;28;2384;-51
2022/08/24 19:11:06;;;;;;;;;;;;;;;23.86;47.75;95910.53;10318283;28;2476;-54
2022/08/24 19:16:06;;;;;;;;;;;;;;;23.86;47.82;95921.13;10323908;28;3163;-50
2022/08/24 19:21:06;;;;;;;;;;;;;;;23.84;47.87;95919.84;10316307;28;3097;-49
2022/08/24 19:26:06;;;;;;;;;;;;;;;23.84;47.81;95910.06;10319191;28;3182;-54
2022/08/24 19:31:07;;;;;;;;;;;;;;;23.86;47.55;95921.13;10316581;28;2414;-53
2022/08/24 19:36:07;;;;;;;;;;;;;;;23.87;47.63;95916.59;10316732;28;3123;-51
2022/08/24 19:41:08;;;;;;;;;;;;;;;23.87;47.84;95914.75;10315864;28;3130;-52
2022/08/24 19:46:09;;;;;;;;;;;;;;;23.86;48.00;95909.75;10317521;28;3095;-51
2022/08/24 19:51:10;;;;;;;;;;;;;;;23.84;47.80;95909.25;10320116;28;3114;-53
2022/08/24 19:56:10;;;;;;;;;;;;;;;23.85;47.85;95910.81;10320105;28;3375;-55
2022/08/24 20:01:13;;;;;;;;;;;;;;;23.87;47.59;95917.41;10321370;28;2500;-52
2022/08/24 20:06:16;;;;;;;;;;;;;;;23.86;47.63;95915.03;10317917;28;3303;-53
2022/08/24 20:11:17;;;;;;;;;;;;;;;23.85;47.65;95911.59;10320020;28;3334;-52
2022/08/24 20:16:18;;;;;;;;;;;;;;;23.86;47.87;95909.75;10321759;28;3246;-54
2022/08/24 20:21:19;;;;;;;;;;;;;;;23.86;47.55;95925.63;10320781;28;3257;-52
2022/08/24 20:26:21;;;;;;;;;;;;;;;23.85;47.89;95914.25;10323369;28;3349;-53
2022/08/24 20:31:23;;;;;;;;;;;;;;;23.88;47.33;95915.53;10314988;28;3364;-52
2022/08/24 20:36:28;;;;;;;;;;;;;;;23.82;47.56;95916.69;10316746;28;2591;-52
2022/08/24 20:41:29;;;;;;;;;;;;;;;23.80;47.50;95921.50;10319519;28;3297;-50
2022/08/24 20:46:39;;;;;;;;;;;;;;;23.79;47.50;95914.63;10325108;28;3265;-52
2022/08/24 20:51:45;;;;;;;;;;;;;;;23.79;47.48;95920.72;10318444;28;3372;-52
2022/08/24 20:56:52;;;;;;;;;;;;;;;23.80;47.60;95916.97;10319883;28;2524;-53
2022/08/24 21:01:54;;;;;;;;;;;;;;;23.79;47.56;95923.34;10319817;28;3361;-53
2022/08/24 21:07:07;;;;;;;;;;;;;;;23.79;47.62;95923.34;10315129;28;3255;-50
2022/08/24 21:12:14;;;;;;;;;;;;;;;23.79;47.62;95920.72;10319313;28;3262;-50
2022/08/24 21:17:15;;;;;;;;;;;;;;;23.79;47.34;95915.41;10326692;28;3369;-53
2022/08/24 21:22:21;;;;;;;;;;;;;;;23.79;47.62;95918.06;10327163;28;3367;-48
2022/08/24 21:27:26;;;;;;;;;;;;;;;23.79;47.64;95910.13;10327304;28;3245;-53
2022/08/24 21:37:46;;;;;;;;;;;;;;;23.80;47.43;95910.91;10320366;28;3357;-54
2022/08/24 21:42:46;;;;;;;;;;;;;;;23.80;47.69;95909.03;10323225;28;3320;-54
2022/08/24 21:47:47;;;;;;;;;;;;;;;23.79;47.41;95904.81;10323034;28;3277;-52
2022/08/24 21:52:47;;;;;;;;;;;;;;;23.79;47.35;95909.31;10322014;28;3317;-52
2022/08/24 21:57:48;;;;;;;;;;;;;;;23.80;47.23;95909.03;10330620;28;3277;-54
2022/08/24 22:02:48;;;;;;;;;;;;;;;23.79;47.36;95899.53;10321927;28;3427;-52
2022/08/24 22:07:49;;;;;;;;;;;;;;;23.80;47.23;95895.78;10324733;28;3401;-53
2022/08/24 22:12:49;;;;;;;;;;;;;;;23.81;47.22;95902.66;10325812;28;3293;-53
2022/08/24 22:17:51;;;;;;;;;;;;;;;23.80;47.54;95898.44;10324319;28;3248;-52
2022/08/24 22:22:51;;;;;;;;;;;;;;;23.79;47.30;95894.25;10325871;28;3356;-53
2022/08/24 22:27:52;;;;;;;;;;;;;;;23.80;47.15;95885.19;10328371;28;3355;-54
2022/08/24 22:32:52;;;;;;;;;;;;;;;23.81;47.27;95891.28;10320552;28;3245;-53
2022/08/24 22:37:52;;;;;;;;;;;;;;;23.80;47.36;95885.19;10323733;28;3317;-54
2022/08/24 22:42:53;;;;;;;;;;;;;;;23.81;47.26;95880.69;10324688;28;3372;-51
2022/08/24 22:47:53;;;;;;;;;;;;;;;23.81;47.42;95876.19;10321089;28;3329;-54
2022/08/24 22:52:55;;;;;;;;;;;;;;;23.81;47.33;95873.56;10322168;28;2524;-54
2022/08/24 22:57:55;;;;;;;;;;;;;;;23.82;47.14;95864.53;10322071;28;3272;-51
2022/08/24 23:02:56;;;;;;;;;;;;;;;23.82;47.20;95864.53;10324598;28;3456;-54
2022/08/24 23:07:56;;;;;;;;;;;;;;;23.82;47.17;95858.47;10321351;28;3420;-52
2022/08/24 23:12:58;;;;;;;;;;;;;;;23.82;46.87;95851.28;10326282;28;2552;-54
2022/08/24 23:19:58;;;;;;;;;;;;;;;23.82;47.06;95853.94;10326173;28;2564;-54
2022/08/24 23:23:19;;;;;;;;;;;;;;;23.82;47.17;95858.47;10324455;28;3292;-54
2022/08/24 23:28:20;;;;;;;;;;;;;;;23.82;47.11;95861.13;10315158;28;3357;-50
2022/08/24 23:33:20;;;;;;;;;;;;;;;23.81;46.95;95854.22;10322788;28;3447;-53
2022/08/24 23:38:20;;;;;;;;;;;;;;;23.83;47.05;95858.16;10329591;28;3300;-53
2022/08/24 23:43:21;;;;;;;;;;;;;;;23.83;47.17;95842.28;10322811;28;3403;-53
2022/08/24 23:48:21;;;;;;;;;;;;;;;23.84;46.91;95845.72;10322071;28;3323;-55
2022/08/24 23:53:22;;;;;;;;;;;;;;;23.83;46.89;95836.19;10322543;28;3365;-52
2022/08/24 23:58:22;;;;;;;;;;;;;;;23.83;46.92;95836.19;10322333;28;2564;-53
